createdAt,value
2019-05-17T00:00:47.563Z,93.99
2019-05-17T00:03:24.315Z,94.24
2019-05-17T00:05:57.502Z,94.12
2019-05-17T00:08:34.305Z,94.05
2019-05-17T00:11:02.586Z,94.23
2019-05-17T00:13:34.350Z,94.19
2019-05-17T00:16:07.221Z,93.75
2019-05-17T00:18:39.115Z,93.81
2019-05-17T00:21:12.132Z,93.95
2019-05-17T00:23:46.969Z,93.78
2019-05-17T00:26:18.936Z,93.57
2019-05-17T00:28:50.744Z,93.73
2019-05-17T00:31:22.487Z,93.78
2019-05-17T00:33:56.587Z,93.56
2019-05-17T00:36:28.889Z,93.24
2019-05-17T00:39:00.528Z,93.18
2019-05-17T00:41:34.217Z,93.31
2019-05-17T00:44:06.405Z,93.18
2019-05-17T00:46:38.220Z,92.97
2019-05-17T00:49:11.201Z,92.14
2019-05-17T00:51:43.046Z,92.03
2019-05-17T00:54:14.792Z,92.12
2019-05-17T00:56:46.815Z,92.13
2019-05-17T00:59:18.553Z,92.26
2019-05-17T01:01:50.394Z,92.31
2019-05-17T01:04:22.157Z,92.54
2019-05-17T01:06:56.161Z,93.31
2019-05-17T01:09:27.459Z,93.93
2019-05-17T01:11:59.186Z,94.02
2019-05-17T01:14:31.028Z,93.97
2019-05-17T01:17:07.225Z,93.93
2019-05-17T01:19:39.085Z,94.19
2019-05-17T01:22:10.828Z,94.65
2019-05-17T01:24:42.669Z,94.99
2019-05-17T01:27:14.421Z,95.10
2019-05-17T01:29:47.728Z,94.64
2019-05-17T01:32:19.840Z,94.60
2019-05-17T01:34:51.486Z,94.53
2019-05-17T01:37:23.225Z,94.02
2019-05-17T01:39:57.243Z,94.11
2019-05-17T01:42:28.605Z,93.65
2019-05-17T01:45:00.343Z,93.68
2019-05-17T01:47:32.390Z,93.47
2019-05-17T01:50:06.952Z,93.56
2019-05-17T01:52:38.695Z,93.38
2019-05-17T01:55:11.373Z,92.80
2019-05-17T01:57:43.222Z,92.92
2019-05-17T02:00:17.542Z,92.55
2019-05-17T02:02:53.439Z,92.12
2019-05-17T02:05:27.343Z,92.42
2019-05-17T02:07:58.791Z,92.69
2019-05-17T02:10:30.529Z,92.80
2019-05-17T02:13:02.278Z,92.39
2019-05-17T02:15:34.122Z,92.32
2019-05-17T02:18:07.183Z,92.77
2019-05-17T02:20:39.424Z,93.09
2019-05-17T02:23:11.169Z,93.36
2019-05-17T02:25:43.086Z,93.48
2019-05-17T02:28:14.734Z,93.34
2019-05-17T02:30:46.744Z,93.40
2019-05-17T02:33:18.595Z,93.58
2019-05-17T02:35:53.411Z,93.44
2019-05-17T02:38:23.880Z,93.79
2019-05-17T02:40:55.625Z,94.01
2019-05-17T02:43:27.843Z,93.89
2019-05-17T02:45:59.483Z,94.06
2019-05-17T02:48:33.812Z,94.05
2019-05-17T02:51:04.687Z,93.62
2019-05-17T02:53:36.325Z,93.70
2019-05-17T02:56:13.033Z,93.93
2019-05-17T02:58:43.832Z,93.78
2019-05-17T03:01:16.165Z,93.98
2019-05-17T03:03:47.919Z,94.23
2019-05-17T03:06:22.572Z,94.45
2019-05-17T03:08:54.053Z,94.65
2019-05-17T03:11:25.705Z,94.98
2019-05-17T03:13:57.434Z,95.11
2019-05-17T03:16:29.178Z,95.15
2019-05-17T03:19:04.301Z,95.33
2019-05-17T03:21:34.264Z,95.86
2019-05-17T03:24:06.640Z,95.98
2019-05-17T03:26:38.171Z,96.10
2019-05-17T03:29:13.365Z,96.12
2019-05-17T03:31:51.223Z,96.09
2019-05-17T03:34:18.026Z,96.29
2019-05-17T03:36:55.754Z,96.42
2019-05-17T03:39:23.576Z,96.23
2019-05-17T03:41:55.425Z,96.08
2019-05-17T03:44:28.405Z,96.08
2019-05-17T03:47:02.407Z,96.11
2019-05-17T03:49:33.694Z,96.13
2019-05-17T03:52:05.612Z,95.95
2019-05-17T03:54:37.264Z,95.98
2019-05-17T03:57:08.997Z,95.89
2019-05-17T03:59:43.113Z,95.79
2019-05-17T04:02:15.939Z,95.50
2019-05-17T04:04:47.688Z,95.26
2019-05-17T04:07:19.427Z,94.93
2019-05-17T04:09:53.188Z,94.77
2019-05-17T04:12:24.501Z,94.70
2019-05-17T04:14:56.239Z,94.65
2019-05-17T04:17:27.987Z,94.52
2019-05-17T04:20:02.970Z,94.35
2019-05-17T04:22:33.363Z,94.09
2019-05-17T04:25:06.355Z,94.14
2019-05-17T04:27:38.084Z,93.88
2019-05-17T04:30:12.516Z,93.75
2019-05-17T04:32:44.827Z,93.75
2019-05-17T04:35:16.795Z,93.21
2019-05-17T04:37:48.688Z,93.07
2019-05-17T04:40:23.100Z,92.92
2019-05-17T04:42:53.868Z,92.95
2019-05-17T04:45:26.582Z,92.40
2019-05-17T04:47:58.323Z,92.44
2019-05-17T04:50:33.257Z,91.75
2019-05-17T04:53:03.646Z,91.40
2019-05-17T04:55:35.785Z,90.93
2019-05-17T04:58:07.530Z,88.96
2019-05-17T05:00:39.263Z,87.78
2019-05-17T05:03:12.754Z,88.81
2019-05-17T05:05:44.600Z,85.78
2019-05-17T05:08:16.363Z,86.01
2019-05-17T05:10:48.141Z,85.07
2019-05-17T05:13:22.516Z,84.75
2019-05-17T05:15:53.234Z,83.67
2019-05-17T05:18:24.993Z,79.55
2019-05-17T05:20:56.838Z,78.60
2019-05-17T05:23:28.475Z,75.65
2019-05-17T05:26:02.779Z,73.37
2019-05-17T05:28:34.975Z,68.95
2019-05-17T05:31:06.845Z,58.25
2019-05-17T05:33:41.968Z,56.16
2019-05-17T05:36:13.783Z,50.28
2019-05-17T05:38:45.419Z,45.79
2019-05-17T05:41:17.169Z,43.62
2019-05-17T05:43:49.011Z,42.25
2019-05-17T05:46:22.391Z,38.92
2019-05-17T05:48:54.303Z,38.03
2019-05-17T05:51:27.902Z,39.03
2019-05-17T05:54:01.680Z,38.59
2019-05-17T05:56:33.277Z,37.49
2019-05-17T05:59:05.028Z,37.05
2019-05-17T06:01:37.754Z,35.67
2019-05-17T06:04:11.593Z,34.92
2019-05-17T06:06:43.288Z,41.67
2019-05-17T06:09:15.122Z,43.03
2019-05-17T06:11:48.150Z,43.69
2019-05-17T06:14:21.595Z,45.60
2019-05-17T06:16:53.245Z,44.89
2019-05-17T06:19:24.993Z,45.71
2019-05-17T06:22:02.892Z,47.00
2019-05-17T06:24:42.474Z,48.14
2019-05-17T06:27:15.245Z,46.90
2019-05-17T06:29:46.793Z,48.46
2019-05-17T06:32:39.077Z,48.52
2019-05-17T06:35:26.006Z,49.71
2019-05-17T06:37:57.547Z,50.52
2019-05-17T06:40:29.391Z,52.18
2019-05-17T06:43:04.210Z,52.96
2019-05-17T06:45:34.477Z,54.76
2019-05-17T06:48:06.292Z,56.14
2019-05-17T06:50:37.931Z,57.10
2019-05-17T06:53:12.126Z,58.08
2019-05-17T06:55:45.108Z,57.99
2019-05-17T06:58:16.994Z,58.78
2019-05-17T07:00:49.766Z,61.36
2019-05-17T07:03:21.751Z,63.68
2019-05-17T07:05:55.150Z,63.87
2019-05-17T07:08:26.687Z,65.11
2019-05-17T07:10:59.748Z,65.29
2019-05-17T07:13:32.433Z,66.25
2019-05-17T07:16:04.111Z,66.67
2019-05-17T07:18:36.271Z,66.97
2019-05-17T07:21:09.999Z,65.91
2019-05-17T07:23:42.020Z,65.98
2019-05-17T07:26:13.950Z,65.93
2019-05-17T07:28:45.707Z,66.54
2019-05-17T07:31:20.265Z,65.87
2019-05-17T07:33:50.799Z,66.80
2019-05-17T07:36:22.547Z,66.39
2019-05-17T07:38:54.315Z,66.77
2019-05-17T07:41:26.049Z,66.35
2019-05-17T07:43:57.793Z,66.31
2019-05-17T07:46:29.555Z,65.05
2019-05-17T07:49:02.228Z,66.15
2019-05-17T07:51:39.443Z,65.40
2019-05-17T07:54:12.595Z,65.87
2019-05-17T07:56:44.335Z,65.66
2019-05-17T07:59:19.945Z,66.28
2019-05-17T08:01:54.294Z,66.26
2019-05-17T08:04:26.028Z,65.58
2019-05-17T08:06:59.843Z,65.82
2019-05-17T08:09:31.382Z,67.12
2019-05-17T08:12:03.150Z,66.94
2019-05-17T08:14:34.906Z,66.38
2019-05-17T08:17:06.677Z,66.09
2019-05-17T08:19:40.273Z,67.09
2019-05-17T08:22:11.997Z,66.38
2019-05-17T08:24:43.751Z,66.83
2019-05-17T08:27:15.496Z,66.85
2019-05-17T08:29:49.754Z,66.05
2019-05-17T08:32:20.979Z,64.47
2019-05-17T08:34:52.628Z,64.61
2019-05-17T08:37:24.486Z,64.08
2019-05-17T08:39:56.118Z,63.74
2019-05-17T08:42:29.991Z,63.32
2019-05-17T08:45:01.578Z,62.73
2019-05-17T08:47:34.268Z,63.89
2019-05-17T08:50:11.211Z,63.69
2019-05-17T08:52:42.918Z,64.95
2019-05-17T08:55:15.780Z,64.17
2019-05-17T08:57:49.879Z,64.80
2019-05-17T09:00:21.112Z,65.74
2019-05-17T09:02:52.789Z,66.51
2019-05-17T09:05:24.540Z,65.80
2019-05-17T09:07:56.366Z,65.72
2019-05-17T09:10:29.957Z,65.72
2019-05-17T09:13:02.776Z,66.18
2019-05-17T09:15:41.029Z,64.45
2019-05-17T09:18:14.239Z,63.84
2019-05-17T09:20:46.085Z,62.80
2019-05-17T09:23:19.691Z,63.38
2019-05-17T09:25:51.514Z,61.77
2019-05-17T09:28:24.791Z,61.13
2019-05-17T09:30:56.432Z,59.37
2019-05-17T09:33:30.007Z,59.71
2019-05-17T09:36:01.941Z,58.19
2019-05-17T09:38:33.705Z,59.45
2019-05-17T09:41:09.219Z,56.67
2019-05-17T09:43:41.347Z,56.06
2019-05-17T09:46:13.745Z,56.48
2019-05-17T09:48:47.027Z,57.44
2019-05-17T09:51:21.262Z,55.46
2019-05-17T09:53:57.134Z,55.26
2019-05-17T09:56:30.147Z,53.01
2019-05-17T09:59:03.120Z,52.66
2019-05-17T10:01:35.753Z,53.93
2019-05-17T10:04:07.522Z,53.50
2019-05-17T10:06:40.101Z,52.00
2019-05-17T10:09:12.231Z,53.29
2019-05-17T10:11:43.999Z,53.64
2019-05-17T10:14:27.491Z,53.01
2019-05-17T10:16:49.112Z,52.00
2019-05-17T10:19:23.617Z,53.04
2019-05-17T10:21:55.770Z,53.50
2019-05-17T10:24:36.023Z,54.58
2019-05-17T10:27:00.993Z,55.30
2019-05-17T10:29:32.745Z,55.99
2019-05-17T10:32:04.486Z,58.05
2019-05-17T10:34:36.336Z,58.28
2019-05-17T10:37:10.308Z,59.39
2019-05-17T10:39:41.891Z,55.92
2019-05-17T10:42:13.730Z,53.76
2019-05-17T10:44:47.748Z,54.19
2019-05-17T10:47:20.015Z,51.62
2019-05-17T10:49:51.772Z,51.43
2019-05-17T10:52:25.198Z,51.48
2019-05-17T10:54:56.816Z,52.28
2019-05-17T10:57:30.270Z,51.22
2019-05-17T11:00:01.901Z,53.98
2019-05-17T11:02:34.725Z,54.61
2019-05-17T11:05:10.388Z,55.47
2019-05-17T11:07:41.489Z,55.73
2019-05-17T11:10:14.212Z,56.97
2019-05-17T11:12:45.869Z,55.07
2019-05-17T11:15:17.959Z,56.03
2019-05-17T11:17:49.501Z,57.19
2019-05-17T11:20:22.103Z,54.81
2019-05-17T11:22:53.843Z,53.62
2019-05-17T11:25:25.615Z,55.38
2019-05-17T11:27:57.360Z,55.46
2019-05-17T11:30:29.137Z,53.98
2019-05-17T11:33:00.870Z,53.11
2019-05-17T11:35:32.786Z,51.81
2019-05-17T11:38:05.408Z,51.51
2019-05-17T11:40:37.050Z,53.32
2019-05-17T11:43:08.807Z,51.24
2019-05-17T11:45:40.564Z,52.02
2019-05-17T11:48:12.313Z,53.51
2019-05-17T11:50:45.047Z,53.78
2019-05-17T11:53:16.798Z,52.18
2019-05-17T11:55:48.580Z,51.90
2019-05-17T11:58:20.412Z,52.23
2019-05-17T12:00:53.054Z,51.54
2019-05-17T12:03:24.774Z,53.15
2019-05-17T12:05:56.524Z,52.52
2019-05-17T12:08:29.309Z,50.89
2019-05-17T12:11:01.321Z,53.30
2019-05-17T12:13:33.584Z,54.09
2019-05-17T12:16:05.342Z,54.39
2019-05-17T12:18:39.419Z,53.93
2019-05-17T12:21:15.414Z,55.19
2019-05-17T12:23:47.096Z,55.59
2019-05-17T12:26:18.872Z,57.85
2019-05-17T12:28:50.808Z,58.31
2019-05-17T12:31:22.676Z,57.75
2019-05-17T12:33:54.402Z,60.18
2019-05-17T12:36:26.505Z,61.12
2019-05-17T12:39:02.658Z,60.67
2019-05-17T12:41:37.217Z,63.85
2019-05-17T12:44:08.858Z,65.20
2019-05-17T12:46:41.991Z,69.30
2019-05-17T12:49:16.832Z,68.21
2019-05-17T12:51:50.020Z,69.59
2019-05-17T12:54:22.653Z,69.47
2019-05-17T12:56:54.431Z,70.51
2019-05-17T12:59:26.226Z,70.85
2019-05-17T13:01:58.084Z,71.93
2019-05-17T13:04:30.985Z,69.16
2019-05-17T13:07:02.741Z,69.88
2019-05-17T13:09:34.506Z,68.78
2019-05-17T13:12:06.192Z,69.78
2019-05-17T13:14:37.939Z,71.14
2019-05-17T13:17:09.714Z,68.07
2019-05-17T13:19:41.475Z,66.99
2019-05-17T13:22:13.254Z,64.30
2019-05-17T13:24:45.008Z,65.64
2019-05-17T13:27:16.785Z,62.66
2019-05-17T13:29:48.557Z,63.68
2019-05-17T13:32:20.325Z,61.62
2019-05-17T13:34:51.984Z,62.40
2019-05-17T13:37:23.745Z,63.25
2019-05-17T13:39:55.522Z,64.32
2019-05-17T13:42:27.601Z,62.47
2019-05-17T13:44:59.650Z,63.76
2019-05-17T13:47:32.420Z,60.57
2019-05-17T13:50:05.777Z,62.21
2019-05-17T13:52:37.455Z,61.09
2019-05-17T13:55:09.921Z,62.75
2019-05-17T13:57:41.630Z,59.22
2019-05-17T14:00:13.800Z,62.74
2019-05-17T14:02:45.644Z,60.26
2019-05-17T14:05:18.042Z,59.03
2019-05-17T14:07:50.531Z,59.95
2019-05-17T14:10:27.683Z,59.77
2019-05-17T14:12:56.716Z,60.04
2019-05-17T14:15:28.466Z,58.23
2019-05-17T14:18:00.234Z,58.32
2019-05-17T14:20:32.002Z,58.37
2019-05-17T14:23:03.896Z,57.64
2019-05-17T14:25:35.454Z,57.42
2019-05-17T14:28:07.201Z,57.88
2019-05-17T14:30:45.225Z,55.68
2019-05-17T14:33:16.786Z,56.71
2019-05-17T14:35:48.335Z,55.92
2019-05-17T14:38:20.094Z,56.10
2019-05-17T14:41:08.680Z,57.03
2019-05-17T14:43:25.433Z,56.28
2019-05-17T14:45:57.193Z,57.42
2019-05-17T14:48:28.954Z,57.66
2019-05-17T14:51:01.942Z,59.49
2019-05-17T14:53:33.713Z,58.76
2019-05-17T14:56:06.985Z,58.60
2019-05-17T14:58:40.403Z,58.80
2019-05-17T15:01:12.085Z,58.53
2019-05-17T15:03:45.358Z,58.56
2019-05-17T15:06:17.110Z,59.94
2019-05-17T15:08:48.745Z,59.77
2019-05-17T15:11:20.603Z,59.17
2019-05-17T15:13:52.464Z,59.26
2019-05-17T15:16:25.572Z,59.97
2019-05-17T15:18:57.430Z,58.75
2019-05-17T15:21:29.181Z,59.36
2019-05-17T15:24:02.962Z,59.10
2019-05-17T15:26:36.331Z,59.42
2019-05-17T15:29:08.165Z,58.69
2019-05-17T15:31:51.736Z,59.23
2019-05-17T15:34:40.351Z,58.80
2019-05-17T15:37:11.800Z,58.78
2019-05-17T15:39:50.443Z,59.42
2019-05-17T15:42:24.512Z,58.03
2019-05-17T15:44:56.241Z,58.65
2019-05-17T15:47:28.803Z,57.29
2019-05-17T15:50:00.696Z,57.74
2019-05-17T15:52:33.751Z,57.17
2019-05-17T15:55:08.354Z,58.02
2019-05-17T15:57:46.259Z,58.88
2019-05-17T16:00:21.825Z,58.30
2019-05-17T16:03:02.220Z,58.06
2019-05-17T16:05:36.725Z,58.85
2019-05-17T16:08:08.565Z,58.66
2019-05-17T16:10:40.606Z,57.06
2019-05-17T16:13:12.705Z,56.81
2019-05-17T16:15:44.574Z,57.32
2019-05-17T16:18:16.455Z,58.00
2019-05-17T16:20:50.176Z,58.57
2019-05-17T16:23:24.544Z,58.45
2019-05-17T16:25:56.358Z,58.19
2019-05-17T16:28:28.117Z,58.09
2019-05-17T16:30:59.903Z,58.67
2019-05-17T16:33:32.114Z,58.74
2019-05-17T16:36:08.023Z,59.37
2019-05-17T16:38:43.086Z,59.67
2019-05-17T16:41:14.886Z,59.53
2019-05-17T16:43:46.637Z,58.85
2019-05-17T16:46:19.636Z,59.27
2019-05-17T16:48:51.698Z,59.90
2019-05-17T16:51:27.916Z,59.91
2019-05-17T16:54:05.895Z,60.64
2019-05-17T16:56:41.170Z,59.90
2019-05-17T16:59:14.663Z,60.74
2019-05-17T17:01:47.407Z,60.99
2019-05-17T17:04:20.074Z,61.16
2019-05-17T17:06:51.821Z,60.61
2019-05-17T17:09:26.819Z,60.32
2019-05-17T17:12:02.302Z,59.99
2019-05-17T17:14:39.118Z,60.54
2019-05-17T17:17:19.849Z,61.12
2019-05-17T17:19:51.516Z,61.35
2019-05-17T17:22:25.729Z,62.70
2019-05-17T17:24:57.842Z,63.11
2019-05-17T17:27:29.514Z,63.23
2019-05-17T17:30:01.296Z,63.47
2019-05-17T17:32:33.060Z,63.89
2019-05-17T17:35:07.153Z,64.30
2019-05-17T17:37:38.924Z,64.00
2019-05-17T17:40:17.087Z,64.53
2019-05-17T17:42:49.401Z,64.42
2019-05-17T17:45:26.616Z,65.32
2019-05-17T17:48:03.904Z,65.28
2019-05-17T17:50:41.366Z,65.57
2019-05-17T17:53:13.795Z,65.42
2019-05-17T17:55:48.733Z,65.66
2019-05-17T17:58:20.774Z,66.35
2019-05-17T18:00:52.833Z,66.42
2019-05-17T18:03:24.894Z,67.16
2019-05-17T18:05:57.633Z,68.13
2019-05-17T18:08:29.508Z,71.13
2019-05-17T18:11:02.240Z,73.00
2019-05-17T18:13:34.121Z,74.87
2019-05-17T18:16:07.221Z,76.05
2019-05-17T18:18:39.112Z,75.37
2019-05-17T18:21:10.837Z,74.12
2019-05-17T18:23:44.240Z,76.47
2019-05-17T18:26:15.934Z,77.29
2019-05-17T18:28:47.682Z,76.66
2019-05-17T18:31:19.464Z,79.06
2019-05-17T18:33:51.372Z,81.54
2019-05-17T18:36:23.231Z,82.43
2019-05-17T18:38:56.094Z,82.36
2019-05-17T18:41:28.056Z,83.07
2019-05-17T18:44:01.248Z,84.46
2019-05-17T18:46:33.127Z,85.37
2019-05-17T18:49:05.999Z,85.80
2019-05-17T18:51:39.711Z,86.03
2019-05-17T18:54:14.116Z,86.17
2019-05-17T18:56:45.897Z,86.44
2019-05-17T18:59:19.278Z,87.38
2019-05-17T19:01:51.925Z,88.26
2019-05-17T19:04:23.843Z,89.14
2019-05-17T19:06:55.739Z,89.84
2019-05-17T19:09:27.645Z,90.09
2019-05-17T19:11:59.507Z,89.99
2019-05-17T19:14:42.421Z,90.20
2019-05-17T19:17:06.205Z,90.63
2019-05-17T19:19:39.783Z,91.10
2019-05-17T19:22:11.466Z,91.12
2019-05-17T19:24:46.049Z,91.10
2019-05-17T19:27:21.444Z,91.35
2019-05-17T19:29:53.231Z,92.28
2019-05-17T19:32:25.942Z,92.41
2019-05-17T19:34:59.815Z,92.98
2019-05-17T19:37:31.898Z,93.48
2019-05-17T19:40:08.480Z,93.65
2019-05-17T19:42:40.365Z,94.12
2019-05-17T19:45:15.748Z,94.33
2019-05-17T19:47:47.182Z,94.76
2019-05-17T19:50:23.292Z,95.29
2019-05-17T19:52:55.187Z,95.39
2019-05-17T19:55:27.258Z,95.57
2019-05-17T19:58:01.712Z,95.63
2019-05-17T20:00:38.298Z,95.77
2019-05-17T20:03:12.345Z,96.47
2019-05-17T20:05:48.421Z,96.44
2019-05-17T20:08:20.069Z,96.64
2019-05-17T20:10:52.272Z,96.86
2019-05-17T20:13:26.139Z,97.04
2019-05-17T20:16:00.128Z,97.44
2019-05-17T20:18:31.992Z,97.77
2019-05-17T20:21:04.987Z,97.89
2019-05-17T20:23:38.071Z,97.98
2019-05-17T20:26:12.585Z,97.32
2019-05-17T20:28:45.828Z,97.90
2019-05-17T20:31:17.824Z,98.07
2019-05-17T20:33:49.691Z,97.65
2019-05-17T20:36:22.846Z,97.06
2019-05-17T20:38:54.646Z,96.94
2019-05-17T20:41:27.988Z,97.27
2019-05-17T20:44:01.111Z,97.89
2019-05-17T20:46:34.237Z,98.07
2019-05-17T20:49:07.248Z,98.55
2019-05-17T20:51:44.156Z,98.64
2019-05-17T20:54:15.946Z,98.61
2019-05-17T20:56:50.728Z,98.51
2019-05-17T20:59:23.385Z,98.71
2019-05-17T21:01:55.447Z,99.11
2019-05-17T21:04:27.431Z,99.50
2019-05-17T21:06:59.303Z,99.78
2019-05-17T21:09:32.645Z,100.00
2019-05-17T21:12:04.447Z,100.00
2019-05-17T21:14:37.390Z,100.00
2019-05-17T21:17:10.213Z,99.93
2019-05-17T21:19:45.213Z,100.00
2019-05-17T21:22:20.154Z,100.00
2019-05-17T21:24:53.262Z,100.00
2019-05-17T21:27:30.550Z,100.00
2019-05-17T21:30:03.567Z,100.00
2019-05-17T21:32:40.725Z,100.00
2019-05-17T21:35:15.246Z,100.00
2019-05-17T21:37:48.283Z,100.00
2019-05-17T21:40:21.677Z,100.00
2019-05-17T21:42:56.196Z,100.00
2019-05-17T21:45:27.972Z,100.00
2019-05-17T21:47:59.747Z,100.00
2019-05-17T21:50:31.528Z,100.00
2019-05-17T21:53:03.872Z,100.00
2019-05-17T21:55:35.619Z,100.00
2019-05-17T21:58:07.374Z,100.00
2019-05-17T22:00:51.461Z,100.00
2019-05-17T22:03:24.459Z,100.00
2019-05-17T22:05:56.116Z,99.60
2019-05-17T22:08:27.872Z,99.09
2019-05-17T22:10:59.643Z,98.61
2019-05-17T22:13:31.403Z,99.41
2019-05-17T22:16:18.477Z,99.24
2019-05-17T22:18:38.659Z,99.06
2019-05-17T22:21:10.593Z,99.13
2019-05-17T22:23:42.463Z,99.72
2019-05-17T22:26:14.210Z,100.00
2019-05-17T22:28:45.979Z,100.00
2019-05-17T22:31:17.794Z,100.00
2019-05-17T22:33:49.447Z,100.00
2019-05-17T22:36:21.217Z,100.00
2019-05-17T22:38:52.980Z,100.00
2019-05-17T22:41:24.709Z,100.00
2019-05-17T22:43:57.152Z,100.00
2019-05-17T22:46:35.940Z,100.00
2019-05-17T22:49:02.754Z,100.00
2019-05-17T22:51:34.507Z,100.00
2019-05-17T22:54:06.267Z,100.00
2019-05-17T22:56:44.101Z,100.00
2019-05-17T22:59:11.640Z,100.00
2019-05-17T23:01:43.389Z,100.00
2019-05-17T23:04:15.131Z,100.00
2019-05-17T23:06:49.682Z,100.00
2019-05-17T23:09:21.431Z,100.00
2019-05-17T23:11:53.172Z,100.00
2019-05-17T23:14:25.020Z,100.00
2019-05-17T23:16:56.763Z,100.00
2019-05-17T23:19:28.513Z,100.00
2019-05-17T23:22:00.247Z,100.00
2019-05-17T23:24:31.992Z,100.00
2019-05-17T23:27:03.805Z,100.00
2019-05-17T23:29:35.541Z,100.00
2019-05-17T23:32:07.280Z,100.00
2019-05-17T23:34:40.738Z,100.00
2019-05-17T23:37:12.682Z,100.00
2019-05-17T23:39:44.431Z,100.00
2019-05-17T23:42:17.342Z,100.00
2019-05-17T23:44:49.183Z,100.00
2019-05-17T23:47:20.935Z,100.00
2019-05-17T23:49:52.678Z,100.00
2019-05-17T23:52:24.614Z,100.00
2019-05-17T23:54:57.367Z,100.00
2019-05-17T23:57:29.208Z,100.00
